sensor_id;sensor_type;location;lat;lon;timestamp;pressure;altitude;pressure_sealevel;temperature;humidity
9225;BME280;4647;48.072;11.616;2024-03-22T00:02:23;96039.22;;;5.69;100.00
9225;BME280;4647;48.072;11.616;2024-03-22T00:04:48;96041.06;;;5.65;100.00
9225;BME280;4647;48.072;11.616;2024-03-22T00:07:14;96042.19;;;5.64;100.00
9225;BME280;4647;48.072;11.616;2024-03-22T00:09:40;96042.38;;;5.74;100.00
9225;BME280;4647;48.072;11.616;2024-03-22T00:12:06;96036.19;;;5.93;100.00
9225;BME280;4647;48.072;11.616;2024-03-22T00:14:32;96037.22;;;5.89;100.00
9225;BME280;4647;48.072;11.616;2024-03-22T00:17:00;96026.63;;;5.73;100.00
9225;BME280;4647;48.072;11.616;2024-03-22T00:19:26;96036.72;;;5.57;100.00
9225;BME280;4647;48.072;11.616;2024-03-22T00:21:52;96033.13;;;5.72;100.00
9225;BME280;4647;48.072;11.616;2024-03-22T00:24:18;96033.41;;;5.67;100.00
9225;BME280;4647;48.072;11.616;2024-03-22T00:26:44;96039.50;;;5.64;100.00
9225;BME280;4647;48.072;11.616;2024-03-22T00:29:10;96029.88;;;5.63;100.00
9225;BME280;4647;48.072;11.616;2024-03-22T00:31:35;96030.91;;;5.54;100.00
9225;BME280;4647;48.072;11.616;2024-03-22T00:34:04;96034.91;;;5.64;100.00
9225;BME280;4647;48.072;11.616;2024-03-22T00:36:30;96034.84;;;5.61;100.00
9225;BME280;4647;48.072;11.616;2024-03-22T00:38:55;96036.28;;;5.32;100.00
9225;BME280;4647;48.072;11.616;2024-03-22T00:41:21;96027.25;;;5.20;100.00
9225;BME280;4647;48.072;11.616;2024-03-22T00:43:47;96024.00;;;5.11;100.00
9225;BME280;4647;48.072;11.616;2024-03-22T00:46:13;96027.75;;;5.07;100.00
9225;BME280;4647;48.072;11.616;2024-03-22T00:48:39;96020.78;;;5.02;100.00
9225;BME280;4647;48.072;11.616;2024-03-22T00:51:07;96005.44;;;5.03;100.00
9225;BME280;4647;48.072;11.616;2024-03-22T00:53:33;96007.00;;;5.04;100.00
9225;BME280;4647;48.072;11.616;2024-03-22T00:55:59;96003.88;;;5.02;100.00
9225;BME280;4647;48.072;11.616;2024-03-22T00:58:26;96004.59;;;4.99;100.00
9225;BME280;4647;48.072;11.616;2024-03-22T01:00:52;95999.66;;;5.01;100.00
9225;BME280;4647;48.072;11.616;2024-03-22T01:03:18;95997.94;;;4.92;100.00
9225;BME280;4647;48.072;11.616;2024-03-22T01:05:44;96001.34;;;4.89;100.00
9225;BME280;4647;48.072;11.616;2024-03-22T01:08:12;95992.56;;;4.92;100.00
9225;BME280;4647;48.072;11.616;2024-03-22T01:10:38;95992.88;;;4.87;100.00
9225;BME280;4647;48.072;11.616;2024-03-22T01:13:04;95992.44;;;4.85;100.00
9225;BME280;4647;48.072;11.616;2024-03-22T01:15:30;95987.38;;;4.80;100.00
9225;BME280;4647;48.072;11.616;2024-03-22T01:17:56;95986.13;;;4.74;100.00
9225;BME280;4647;48.072;11.616;2024-03-22T01:20:22;95989.06;;;4.69;100.00
9225;BME280;4647;48.072;11.616;2024-03-22T01:22:47;95975.69;;;4.73;100.00
9225;BME280;4647;48.072;11.616;2024-03-22T01:25:16;95971.13;;;4.73;100.00
9225;BME280;4647;48.072;11.616;2024-03-22T01:27:42;95976.16;;;4.75;100.00
9225;BME280;4647;48.072;11.616;2024-03-22T01:30:08;95965.63;;;4.66;100.00
9225;BME280;4647;48.072;11.616;2024-03-22T01:32:34;95967.88;;;4.64;100.00
9225;BME280;4647;48.072;11.616;2024-03-22T01:35:00;95968.16;;;4.59;100.00
9225;BME280;4647;48.072;11.616;2024-03-22T01:37:26;95977.00;;;4.59;100.00
9225;BME280;4647;48.072;11.616;2024-03-22T01:39:52;95962.38;;;4.57;100.00
9225;BME280;4647;48.072;11.616;2024-03-22T01:42:20;95969.66;;;4.56;100.00
9225;BME280;4647;48.072;11.616;2024-03-22T01:44:48;95963.81;;;4.51;100.00
9225;BME280;4647;48.072;11.616;2024-03-22T01:47:14;95972.34;;;4.56;100.00
9225;BME280;4647;48.072;11.616;2024-03-22T01:49:40;95964.28;;;4.56;100.00
9225;BME280;4647;48.072;11.616;2024-03-22T01:52:06;95963.34;;;4.68;100.00
9225;BME280;4647;48.072;11.616;2024-03-22T01:54:32;95961.38;;;4.65;100.00
9225;BME280;4647;48.072;11.616;2024-03-22T01:56:58;95962.88;;;4.62;100.00
9225;BME280;4647;48.072;11.616;2024-03-22T01:59:28;95953.31;;;4.65;100.00
9225;BME280;4647;48.072;11.616;2024-03-22T02:01:54;95952.00;;;4.55;100.00
9225;BME280;4647;48.072;11.616;2024-03-22T02:04:19;95965.25;;;4.48;100.00
9225;BME280;4647;48.072;11.616;2024-03-22T02:06:45;95947.59;;;4.47;100.00
9225;BME280;4647;48.072;11.616;2024-03-22T02:09:11;95946.06;;;4.46;100.00
9225;BME280;4647;48.072;11.616;2024-03-22T02:11:37;95955.16;;;4.42;100.00
9225;BME280;4647;48.072;11.616;2024-03-22T02:14:05;95941.34;;;4.40;100.00
9225;BME280;4647;48.072;11.616;2024-03-22T02:16:33;95936.75;;;4.40;100.00
9225;BME280;4647;48.072;11.616;2024-03-22T02:18:59;95931.25;;;4.52;100.00
9225;BME280;4647;48.072;11.616;2024-03-22T02:21:25;95932.69;;;4.69;100.00
9225;BME280;4647;48.072;11.616;2024-03-22T02:23:53;95931.09;;;4.65;100.00
9225;BME280;4647;48.072;11.616;2024-03-22T02:26:19;95931.31;;;4.56;100.00
9225;BME280;4647;48.072;11.616;2024-03-22T02:28:45;95929.34;;;4.53;100.00
9225;BME280;4647;48.072;11.616;2024-03-22T02:31:11;95925.38;;;4.47;100.00
9225;BME280;4647;48.072;11.616;2024-03-22T02:33:36;95924.75;;;4.34;100.00
9225;BME280;4647;48.072;11.616;2024-03-22T02:36:03;95922.44;;;4.32;100.00
9225;BME280;4647;48.072;11.616;2024-03-22T02:38:29;95927.97;;;4.24;100.00
9225;BME280;4647;48.072;11.616;2024-03-22T02:40:58;95919.81;;;4.17;100.00
9225;BME280;4647;48.072;11.616;2024-03-22T02:43:24;95921.41;;;4.21;100.00
9225;BME280;4647;48.072;11.616;2024-03-22T02:45:50;95910.28;;;4.19;100.00
9225;BME280;4647;48.072;11.616;2024-03-22T02:48:16;95907.53;;;4.35;100.00
9225;BME280;4647;48.072;11.616;2024-03-22T02:50:42;95904.00;;;4.31;100.00
9225;BME280;4647;48.072;11.616;2024-03-22T02:53:07;95905.63;;;4.36;100.00
9225;BME280;4647;48.072;11.616;2024-03-22T02:55:37;95909.00;;;4.32;100.00
9225;BME280;4647;48.072;11.616;2024-03-22T02:58:06;95909.72;;;4.29;100.00
9225;BME280;4647;48.072;11.616;2024-03-22T03:00:35;95906.97;;;4.26;100.00
9225;BME280;4647;48.072;11.616;2024-03-22T03:03:02;95908.38;;;4.20;100.00
9225;BME280;4647;48.072;11.616;2024-03-22T03:05:27;95904.13;;;4.19;100.00
9225;BME280;4647;48.072;11.616;2024-03-22T03:07:53;95892.91;;;4.13;100.00
9225;BME280;4647;48.072;11.616;2024-03-22T03:10:19;95897.78;;;4.08;100.00
9225;BME280;4647;48.072;11.616;2024-03-22T03:12:45;95888.69;;;4.12;100.00
9225;BME280;4647;48.072;11.616;2024-03-22T03:15:13;95883.38;;;4.16;100.00
9225;BME280;4647;48.072;11.616;2024-03-22T03:17:39;95883.19;;;4.05;100.00
9225;BME280;4647;48.072;11.616;2024-03-22T03:20:06;95879.63;;;4.01;100.00
9225;BME280;4647;48.072;11.616;2024-03-22T03:22:33;95882.19;;;3.94;100.00
9225;BME280;4647;48.072;11.616;2024-03-22T03:24:59;95880.91;;;3.88;100.00
9225;BME280;4647;48.072;11.616;2024-03-22T03:27:25;95878.50;;;3.83;100.00
9225;BME280;4647;48.072;11.616;2024-03-22T03:29:50;95878.50;;;3.83;100.00
9225;BME280;4647;48.072;11.616;2024-03-22T03:32:19;95869.75;;;3.86;100.00
9225;BME280;4647;48.072;11.616;2024-03-22T03:34:45;95873.16;;;3.83;100.00
9225;BME280;4647;48.072;11.616;2024-03-22T03:37:11;95878.16;;;3.84;100.00
9225;BME280;4647;48.072;11.616;2024-03-22T03:39:36;95873.78;;;3.95;100.00
9225;BME280;4647;48.072;11.616;2024-03-22T03:42:02;95871.69;;;4.05;100.00
9225;BME280;4647;48.072;11.616;2024-03-22T03:44:28;95866.69;;;4.03;100.00
9225;BME280;4647;48.072;11.616;2024-03-22T03:46:54;95867.88;;;4.06;100.00
9225;BME280;4647;48.072;11.616;2024-03-22T03:49:22;95859.41;;;4.04;100.00
9225;BME280;4647;48.072;11.616;2024-03-22T03:51:48;95862.44;;;3.83;100.00
9225;BME280;4647;48.072;11.616;2024-03-22T03:54:14;95859.88;;;3.90;100.00
9225;BME280;4647;48.072;11.616;2024-03-22T03:56:40;95854.53;;;3.90;100.00
9225;BME280;4647;48.072;11.616;2024-03-22T03:59:06;95854.47;;;3.86;100.00
9225;BME280;4647;48.072;11.616;2024-03-22T04:01:32;95847.03;;;3.99;100.00
9225;BME280;4647;48.072;11.616;2024-03-22T04:03:58;95845.84;;;3.96;100.00
9225;BME280;4647;48.072;11.616;2024-03-22T04:06:26;95847.47;;;3.82;100.00
9225;BME280;4647;48.072;11.616;2024-03-22T04:08:52;95845.56;;;3.82;100.00
9225;BME280;4647;48.072;11.616;2024-03-22T04:11:18;95839.34;;;3.78;100.00
9225;BME280;4647;48.072;11.616;2024-03-22T04:13:44;95840.16;;;3.79;100.00
9225;BME280;4647;48.072;11.616;2024-03-22T04:16:10;95844.09;;;3.85;100.00
9225;BME280;4647;48.072;11.616;2024-03-22T04:18:35;95846.78;;;3.85;100.00
9225;BME280;4647;48.072;11.616;2024-03-22T04:21:01;95845.22;;;3.84;100.00
9225;BME280;4647;48.072;11.616;2024-03-22T04:23:30;95838.31;;;3.83;100.00
9225;BME280;4647;48.072;11.616;2024-03-22T04:25:57;95828.44;;;3.87;100.00
9225;BME280;4647;48.072;11.616;2024-03-22T04:28:23;95830.41;;;3.90;100.00
9225;BME280;4647;48.072;11.616;2024-03-22T04:31:00;95827.72;;;3.90;100.00
9225;BME280;4647;48.072;11.616;2024-03-22T04:33:26;95817.78;;;3.90;100.00
9225;BME280;4647;48.072;11.616;2024-03-22T04:35:53;95823.84;;;4.07;100.00
9225;BME280;4647;48.072;11.616;2024-03-22T04:38:19;95821.09;;;4.03;100.00
9225;BME280;4647;48.072;11.616;2024-03-22T04:40:47;95828.16;;;4.11;100.00
9225;BME280;4647;48.072;11.616;2024-03-22T04:43:14;95821.22;;;4.10;100.00
9225;BME280;4647;48.072;11.616;2024-03-22T04:45:42;95823.31;;;4.20;100.00
9225;BME280;4647;48.072;11.616;2024-03-22T04:48:08;95820.59;;;4.17;100.00
9225;BME280;4647;48.072;11.616;2024-03-22T04:50:33;95830.19;;;4.18;100.00
9225;BME280;4647;48.072;11.616;2024-03-22T04:52:59;95833.44;;;4.27;100.00
9225;BME280;4647;48.072;11.616;2024-03-22T04:55:25;95828.34;;;4.22;100.00
9225;BME280;4647;48.072;11.616;2024-03-22T04:57:54;95836.22;;;4.34;100.00
9225;BME280;4647;48.072;11.616;2024-03-22T05:00:20;95832.78;;;4.34;100.00
9225;BME280;4647;48.072;11.616;2024-03-22T05:02:45;95828.75;;;4.24;100.00
9225;BME280;4647;48.072;11.616;2024-03-22T05:05:11;95831.38;;;4.20;100.00
9225;BME280;4647;48.072;11.616;2024-03-22T05:07:37;95829.53;;;4.24;100.00
9225;BME280;4647;48.072;11.616;2024-03-22T05:10:04;95822.16;;;4.41;100.00
9225;BME280;4647;48.072;11.616;2024-03-22T05:12:30;95822.53;;;4.39;100.00
9225;BME280;4647;48.072;11.616;2024-03-22T05:14:58;95823.41;;;4.47;100.00
9225;BME280;4647;48.072;11.616;2024-03-22T05:17:24;95820.94;;;4.57;100.00
9225;BME280;4647;48.072;11.616;2024-03-22T05:19:49;95819.16;;;4.65;100.00
9225;BME280;4647;48.072;11.616;2024-03-22T05:22:15;95816.28;;;4.77;100.00
9225;BME280;4647;48.072;11.616;2024-03-22T05:24:41;95816.50;;;4.91;100.00
9225;BME280;4647;48.072;11.616;2024-03-22T05:27:07;95816.31;;;5.04;100.00
9225;BME280;4647;48.072;11.616;2024-03-22T05:29:33;95814.94;;;5.13;100.00
9225;BME280;4647;48.072;11.616;2024-03-22T05:32:01;95807.81;;;5.24;100.00
9225;BME280;4647;48.072;11.616;2024-03-22T05:34:27;95820.34;;;5.43;100.00
9225;BME280;4647;48.072;11.616;2024-03-22T05:36:53;95814.00;;;5.55;100.00
9225;BME280;4647;48.072;11.616;2024-03-22T05:39:19;95816.09;;;5.69;100.00
9225;BME280;4647;48.072;11.616;2024-03-22T05:41:45;95814.03;;;5.89;100.00
9225;BME280;4647;48.072;11.616;2024-03-22T05:44:11;95821.16;;;6.04;100.00
9225;BME280;4647;48.072;11.616;2024-03-22T05:46:37;95816.41;;;6.24;100.00
9225;BME280;4647;48.072;11.616;2024-03-22T05:49:05;95817.53;;;6.23;100.00
9225;BME280;4647;48.072;11.616;2024-03-22T05:51:31;95802.88;;;6.17;100.00
9225;BME280;4647;48.072;11.616;2024-03-22T05:53:57;95809.88;;;6.25;100.00
9225;BME280;4647;48.072;11.616;2024-03-22T05:56:23;95811.91;;;6.38;100.00
9225;BME280;4647;48.072;11.616;2024-03-22T05:58:48;95803.16;;;6.45;100.00
9225;BME280;4647;48.072;11.616;2024-03-22T06:01:14;95808.13;;;6.39;100.00
9225;BME280;4647;48.072;11.616;2024-03-22T06:03:40;95802.28;;;6.34;100.00
9225;BME280;4647;48.072;11.616;2024-03-22T06:06:08;95796.56;;;6.39;100.00
9225;BME280;4647;48.072;11.616;2024-03-22T06:08:34;95798.16;;;6.43;100.00
9225;BME280;4647;48.072;11.616;2024-03-22T06:11:00;95801.75;;;6.58;100.00
9225;BME280;4647;48.072;11.616;2024-03-22T06:13:26;95801.84;;;6.69;100.00
9225;BME280;4647;48.072;11.616;2024-03-22T06:15:53;95804.25;;;6.81;100.00
9225;BME280;4647;48.072;11.616;2024-03-22T06:18:19;95796.19;;;6.85;100.00
9225;BME280;4647;48.072;11.616;2024-03-22T06:20:45;95798.00;;;6.70;100.00
9225;BME280;4647;48.072;11.616;2024-03-22T06:23:13;95801.47;;;6.70;100.00
9225;BME280;4647;48.072;11.616;2024-03-22T06:25:39;95800.28;;;6.64;100.00
9225;BME280;4647;48.072;11.616;2024-03-22T06:28:05;95788.69;;;6.60;100.00
9225;BME280;4647;48.072;11.616;2024-03-22T06:30:31;95794.13;;;6.64;100.00
9225;BME280;4647;48.072;11.616;2024-03-22T06:32:57;95800.97;;;6.58;100.00
9225;BME280;4647;48.072;11.616;2024-03-22T06:35:23;95795.53;;;6.51;100.00
9225;BME280;4647;48.072;11.616;2024-03-22T06:37:49;95797.50;;;6.57;100.00
9225;BME280;4647;48.072;11.616;2024-03-22T06:40:17;95788.53;;;6.42;100.00
9225;BME280;4647;48.072;11.616;2024-03-22T06:42:43;95792.66;;;6.33;100.00
9225;BME280;4647;48.072;11.616;2024-03-22T06:45:09;95796.16;;;6.37;100.00
9225;BME280;4647;48.072;11.616;2024-03-22T06:47:35;95794.84;;;6.61;100.00
9225;BME280;4647;48.072;11.616;2024-03-22T06:50:01;95796.47;;;6.69;100.00
9225;BME280;4647;48.072;11.616;2024-03-22T06:52:27;95793.50;;;6.85;100.00
9225;BME280;4647;48.072;11.616;2024-03-22T06:54:52;95795.94;;;7.00;100.00
9225;BME280;4647;48.072;11.616;2024-03-22T06:57:21;95792.91;;;7.09;100.00
9225;BME280;4647;48.072;11.616;2024-03-22T06:59:47;95796.88;;;7.22;100.00
9225;BME280;4647;48.072;11.616;2024-03-22T07:02:13;95789.31;;;7.46;100.00
9225;BME280;4647;48.072;11.616;2024-03-22T07:04:39;95792.44;;;7.55;100.00
9225;BME280;4647;48.072;11.616;2024-03-22T07:07:05;95783.28;;;7.74;99.06
9225;BME280;4647;48.072;11.616;2024-03-22T07:09:32;95796.00;;;7.73;99.03
9225;BME280;4647;48.072;11.616;2024-03-22T07:11:58;95789.13;;;7.83;98.94
9225;BME280;4647;48.072;11.616;2024-03-22T07:14:26;95788.00;;;7.94;98.34
9225;BME280;4647;48.072;11.616;2024-03-22T07:16:52;95794.25;;;8.06;100.00
9225;BME280;4647;48.072;11.616;2024-03-22T07:19:18;95795.09;;;8.31;99.62
9225;BME280;4647;48.072;11.616;2024-03-22T07:21:44;95796.28;;;8.51;97.47
9225;BME280;4647;48.072;11.616;2024-03-22T07:24:10;95787.06;;;8.63;97.41
9225;BME280;4647;48.072;11.616;2024-03-22T07:26:36;95787.09;;;8.81;98.08
9225;BME280;4647;48.072;11.616;2024-03-22T07:29:02;95782.06;;;8.97;96.16
9225;BME280;4647;48.072;11.616;2024-03-22T07:31:30;95782.84;;;9.05;97.43
9225;BME280;4647;48.072;11.616;2024-03-22T07:33:56;95785.91;;;9.28;94.78
9225;BME280;4647;48.072;11.616;2024-03-22T07:36:22;95787.81;;;9.52;95.37
9225;BME280;4647;48.072;11.616;2024-03-22T07:38:48;95782.34;;;9.70;92.26
9225;BME280;4647;48.072;11.616;2024-03-22T07:41:14;95782.72;;;9.65;90.88
9225;BME280;4647;48.072;11.616;2024-03-22T07:43:40;95794.31;;;9.76;91.55
9225;BME280;4647;48.072;11.616;2024-03-22T07:46:06;95784.97;;;9.92;90.82
9225;BME280;4647;48.072;11.616;2024-03-22T07:48:34;95789.56;;;10.05;89.74
9225;BME280;4647;48.072;11.616;2024-03-22T07:51:01;95793.06;;;10.02;89.06
9225;BME280;4647;48.072;11.616;2024-03-22T07:53:27;95793.00;;;10.13;90.43
9225;BME280;4647;48.072;11.616;2024-03-22T07:55:53;95792.59;;;10.25;89.17
9225;BME280;4647;48.072;11.616;2024-03-22T07:58:19;95793.31;;;10.33;87.95
9225;BME280;4647;48.072;11.616;2024-03-22T08:00:45;95787.06;;;10.47;88.85
9225;BME280;4647;48.072;11.616;2024-03-22T08:03:14;95785.41;;;10.67;86.21
9225;BME280;4647;48.072;11.616;2024-03-22T08:05:43;95775.34;;;10.60;86.86
9225;BME280;4647;48.072;11.616;2024-03-22T08:08:09;95782.22;;;10.75;85.32
9225;BME280;4647;48.072;11.616;2024-03-22T08:10:34;95775.22;;;10.82;85.90
9225;BME280;4647;48.072;11.616;2024-03-22T08:13:00;95776.78;;;10.79;85.26
9225;BME280;4647;48.072;11.616;2024-03-22T08:15:26;95771.28;;;10.86;87.66
9225;BME280;4647;48.072;11.616;2024-03-22T08:17:52;95764.63;;;10.98;87.16
9225;BME280;4647;48.072;11.616;2024-03-22T08:20:18;95768.78;;;11.13;87.32
9225;BME280;4647;48.072;11.616;2024-03-22T08:22:46;95763.31;;;11.17;85.38
9225;BME280;4647;48.072;11.616;2024-03-22T08:25:12;95766.69;;;11.28;85.42
9225;BME280;4647;48.072;11.616;2024-03-22T08:27:38;95770.97;;;11.25;83.16
9225;BME280;4647;48.072;11.616;2024-03-22T08:30:05;95767.06;;;11.30;82.98
9225;BME280;4647;48.072;11.616;2024-03-22T08:32:31;95763.88;;;11.38;82.09
9225;BME280;4647;48.072;11.616;2024-03-22T08:34:57;95763.69;;;11.56;81.96
9225;BME280;4647;48.072;11.616;2024-03-22T08:37:23;95767.34;;;11.80;80.19
9225;BME280;4647;48.072;11.616;2024-03-22T08:39:51;95764.09;;;11.92;80.68
9225;BME280;4647;48.072;11.616;2024-03-22T08:42:17;95759.41;;;11.96;77.26
9225;BME280;4647;48.072;11.616;2024-03-22T08:44:43;95755.50;;;11.97;79.06
9225;BME280;4647;48.072;11.616;2024-03-22T08:47:09;95753.84;;;12.07;79.42
9225;BME280;4647;48.072;11.616;2024-03-22T08:49:35;95755.38;;;12.08;77.65
9225;BME280;4647;48.072;11.616;2024-03-22T08:52:01;95750.31;;;12.10;77.91
9225;BME280;4647;48.072;11.616;2024-03-22T08:54:27;95749.13;;;12.11;78.44
9225;BME280;4647;48.072;11.616;2024-03-22T08:56:56;95742.31;;;12.26;75.89
9225;BME280;4647;48.072;11.616;2024-03-22T08:59:22;95741.31;;;12.44;77.23
9225;BME280;4647;48.072;11.616;2024-03-22T09:01:48;95741.00;;;12.65;74.89
9225;BME280;4647;48.072;11.616;2024-03-22T09:04:13;95738.84;;;12.80;74.72
9225;BME280;4647;48.072;11.616;2024-03-22T09:06:40;95734.13;;;12.84;74.44
9225;BME280;4647;48.072;11.616;2024-03-22T09:09:06;95732.16;;;12.84;75.13
9225;BME280;4647;48.072;11.616;2024-03-22T09:11:31;95726.84;;;13.01;73.86
9225;BME280;4647;48.072;11.616;2024-03-22T09:14:00;95726.78;;;13.04;73.06
9225;BME280;4647;48.072;11.616;2024-03-22T09:16:26;95714.25;;;13.10;72.25
9225;BME280;4647;48.072;11.616;2024-03-22T09:18:53;95727.63;;;13.25;71.60
9225;BME280;4647;48.072;11.616;2024-03-22T09:21:18;95722.66;;;13.19;71.38
9225;BME280;4647;48.072;11.616;2024-03-22T09:23:44;95713.06;;;13.35;71.44
9225;BME280;4647;48.072;11.616;2024-03-22T09:26:10;95717.06;;;13.50;69.88
9225;BME280;4647;48.072;11.616;2024-03-22T09:28:36;95723.41;;;13.43;70.21
9225;BME280;4647;48.072;11.616;2024-03-22T09:31:07;95716.59;;;13.55;69.96
9225;BME280;4647;48.072;11.616;2024-03-22T09:33:33;95712.59;;;13.79;69.27
9225;BME280;4647;48.072;11.616;2024-03-22T09:35:59;95702.41;;;13.83;69.99
9225;BME280;4647;48.072;11.616;2024-03-22T09:38:25;95707.34;;;14.08;69.58
9225;BME280;4647;48.072;11.616;2024-03-22T09:40:51;95706.19;;;14.42;68.25
9225;BME280;4647;48.072;11.616;2024-03-22T09:43:18;95698.34;;;14.48;64.46
9225;BME280;4647;48.072;11.616;2024-03-22T09:45:45;95702.84;;;14.18;64.24
9225;BME280;4647;48.072;11.616;2024-03-22T09:48:14;95687.56;;;14.04;66.33
9225;BME280;4647;48.072;11.616;2024-03-22T09:50:41;95691.03;;;14.25;65.96
9225;BME280;4647;48.072;11.616;2024-03-22T09:53:08;95699.72;;;14.20;67.23
9225;BME280;4647;48.072;11.616;2024-03-22T09:55:36;95692.41;;;14.33;67.18
9225;BME280;4647;48.072;11.616;2024-03-22T09:58:02;95684.91;;;14.21;64.20
9225;BME280;4647;48.072;11.616;2024-03-22T10:00:29;95686.59;;;14.31;63.56
9225;BME280;4647;48.072;11.616;2024-03-22T10:02:56;95690.88;;;14.32;63.85
9225;BME280;4647;48.072;11.616;2024-03-22T10:05:24;95682.81;;;14.08;63.92
9225;BME280;4647;48.072;11.616;2024-03-22T10:07:51;95680.78;;;14.12;65.10
9225;BME280;4647;48.072;11.616;2024-03-22T10:10:17;95681.22;;;14.47;64.59
9225;BME280;4647;48.072;11.616;2024-03-22T10:12:43;95681.06;;;14.70;62.42
9225;BME280;4647;48.072;11.616;2024-03-22T10:15:09;95665.28;;;14.62;62.50
9225;BME280;4647;48.072;11.616;2024-03-22T10:17:35;95668.75;;;14.79;62.27
9225;BME280;4647;48.072;11.616;2024-03-22T10:20:01;95664.50;;;14.94;62.00
9225;BME280;4647;48.072;11.616;2024-03-22T10:22:30;95667.91;;;14.98;60.84
9225;BME280;4647;48.072;11.616;2024-03-22T10:24:55;95663.53;;;15.00;60.44
9225;BME280;4647;48.072;11.616;2024-03-22T10:27:21;95660.97;;;15.10;60.65
9225;BME280;4647;48.072;11.616;2024-03-22T10:29:47;95658.22;;;15.10;60.97
9225;BME280;4647;48.072;11.616;2024-03-22T10:32:13;95649.63;;;15.11;60.14
9225;BME280;4647;48.072;11.616;2024-03-22T10:34:40;95657.44;;;15.25;59.54
9225;BME280;4647;48.072;11.616;2024-03-22T10:37:08;95642.28;;;15.37;60.19
9225;BME280;4647;48.072;11.616;2024-03-22T10:39:38;95647.97;;;15.59;59.56
9225;BME280;4647;48.072;11.616;2024-03-22T10:42:06;95640.03;;;15.64;58.56
9225;BME280;4647;48.072;11.616;2024-03-22T10:44:32;95643.19;;;15.63;58.66
9225;BME280;4647;48.072;11.616;2024-03-22T10:47:01;95636.13;;;15.49;60.59
9225;BME280;4647;48.072;11.616;2024-03-22T10:49:29;95636.41;;;15.68;59.43
9225;BME280;4647;48.072;11.616;2024-03-22T10:51:59;95637.78;;;16.01;58.98
9225;BME280;4647;48.072;11.616;2024-03-22T10:54:32;95633.72;;;16.06;58.33
9225;BME280;4647;48.072;11.616;2024-03-22T10:57:02;95635.69;;;16.05;57.79
9225;BME280;4647;48.072;11.616;2024-03-22T10:59:33;95632.59;;;15.78;57.95
9225;BME280;4647;48.072;11.616;2024-03-22T11:02:03;95628.81;;;15.88;58.36
9225;BME280;4647;48.072;11.616;2024-03-22T11:04:30;95630.03;;;16.12;57.83
9225;BME280;4647;48.072;11.616;2024-03-22T11:06:56;95621.50;;;16.10;58.33
9225;BME280;4647;48.072;11.616;2024-03-22T11:09:23;95615.94;;;16.14;57.34
9225;BME280;4647;48.072;11.616;2024-03-22T11:11:49;95607.56;;;15.79;58.47
9225;BME280;4647;48.072;11.616;2024-03-22T11:14:19;95602.53;;;15.65;59.13
9225;BME280;4647;48.072;11.616;2024-03-22T11:16:46;95605.06;;;15.72;58.84
9225;BME280;4647;48.072;11.616;2024-03-22T11:19:12;95605.50;;;15.83;57.76
9225;BME280;4647;48.072;11.616;2024-03-22T11:21:38;95589.34;;;16.02;57.34
9225;BME280;4647;48.072;11.616;2024-03-22T11:24:04;95585.84;;;16.01;57.72
9225;BME280;4647;48.072;11.616;2024-03-22T11:26:30;95597.13;;;15.90;58.51
9225;BME280;4647;48.072;11.616;2024-03-22T11:28:56;95589.34;;;15.89;57.94
9225;BME280;4647;48.072;11.616;2024-03-22T11:31:24;95577.66;;;16.01;57.61
9225;BME280;4647;48.072;11.616;2024-03-22T11:33:51;95581.13;;;16.02;57.78
9225;BME280;4647;48.072;11.616;2024-03-22T11:36:17;95579.47;;;16.42;56.19
9225;BME280;4647;48.072;11.616;2024-03-22T11:38:43;95570.94;;;16.27;56.20
9225;BME280;4647;48.072;11.616;2024-03-22T11:41:09;95566.63;;;16.65;56.64
9225;BME280;4647;48.072;11.616;2024-03-22T11:43:36;95565.97;;;17.08;55.88
9225;BME280;4647;48.072;11.616;2024-03-22T11:46:03;95554.13;;;17.11;54.21
9225;BME280;4647;48.072;11.616;2024-03-22T11:48:31;95551.88;;;17.40;52.39
9225;BME280;4647;48.072;11.616;2024-03-22T11:50:57;95553.56;;;17.47;53.35
9225;BME280;4647;48.072;11.616;2024-03-22T11:53:23;95543.91;;;16.90;54.23
9225;BME280;4647;48.072;11.616;2024-03-22T11:55:49;95540.56;;;16.73;54.60
9225;BME280;4647;48.072;11.616;2024-03-22T11:58:15;95543.66;;;16.62;54.47
9225;BME280;4647;48.072;11.616;2024-03-22T12:00:42;95530.41;;;16.73;54.64
9225;BME280;4647;48.072;11.616;2024-03-22T12:03:09;95528.25;;;16.90;54.84
9225;BME280;4647;48.072;11.616;2024-03-22T12:05:37;95520.19;;;16.86;52.81
9225;BME280;4647;48.072;11.616;2024-03-22T12:08:04;95520.38;;;16.92;53.70
9225;BME280;4647;48.072;11.616;2024-03-22T12:10:30;95514.94;;;17.01;52.69
9225;BME280;4647;48.072;11.616;2024-03-22T12:12:56;95521.31;;;17.20;53.93
9225;BME280;4647;48.072;11.616;2024-03-22T12:15:22;95498.47;;;17.14;54.49
9225;BME280;4647;48.072;11.616;2024-03-22T12:17:47;95502.38;;;17.04;54.13
9225;BME280;4647;48.072;11.616;2024-03-22T12:20:13;95489.53;;;17.01;53.06
9225;BME280;4647;48.072;11.616;2024-03-22T12:22:43;95489.41;;;17.26;53.64
9225;BME280;4647;48.072;11.616;2024-03-22T12:25:08;95489.03;;;17.46;52.89
9225;BME280;4647;48.072;11.616;2024-03-22T12:27:35;95483.19;;;17.57;54.12
9225;BME280;4647;48.072;11.616;2024-03-22T12:30:01;95479.63;;;17.16;54.85
9225;BME280;4647;48.072;11.616;2024-03-22T12:32:27;95485.03;;;17.29;54.15
9225;BME280;4647;48.072;11.616;2024-03-22T12:34:52;95476.09;;;17.37;53.91
9225;BME280;4647;48.072;11.616;2024-03-22T12:37:18;95476.44;;;17.17;53.66
9225;BME280;4647;48.072;11.616;2024-03-22T12:39:47;95466.56;;;17.20;53.54
9225;BME280;4647;48.072;11.616;2024-03-22T12:42:12;95458.53;;;17.57;52.13
9225;BME280;4647;48.072;11.616;2024-03-22T12:44:38;95452.41;;;17.93;52.06
9225;BME280;4647;48.072;11.616;2024-03-22T12:47:05;95454.28;;;17.65;52.03
9225;BME280;4647;48.072;11.616;2024-03-22T12:49:30;95457.06;;;17.74;50.67
9225;BME280;4647;48.072;11.616;2024-03-22T12:51:56;95450.91;;;17.61;50.36
9225;BME280;4647;48.072;11.616;2024-03-22T12:54:22;95443.63;;;17.67;52.15
9225;BME280;4647;48.072;11.616;2024-03-22T12:56:50;95436.75;;;17.62;52.01
9225;BME280;4647;48.072;11.616;2024-03-22T12:59:16;95426.56;;;18.03;52.14
9225;BME280;4647;48.072;11.616;2024-03-22T13:01:42;95428.09;;;18.40;51.36
9225;BME280;4647;48.072;11.616;2024-03-22T13:04:08;95433.84;;;17.97;52.43
9225;BME280;4647;48.072;11.616;2024-03-22T13:06:34;95423.06;;;18.12;50.54
9225;BME280;4647;48.072;11.616;2024-03-22T13:09:00;95417.44;;;18.24;50.71